createdAt,value
2019-01-16T00:01:33.062Z,8.57
2019-01-16T00:04:32.019Z,7.10
2019-01-16T00:07:21.693Z,7.57
2019-01-16T00:10:08.657Z,7.47
2019-01-16T00:12:52.761Z,9.70
2019-01-16T00:15:45.425Z,9.93
2019-01-16T00:18:33.703Z,12.53
2019-01-16T00:21:15.793Z,12.53
2019-01-16T00:24:04.285Z,5.17
2019-01-16T00:26:51.073Z,5.83
2019-01-16T00:29:39.417Z,6.63
2019-01-16T00:32:29.096Z,6.83
2019-01-16T00:35:28.016Z,5.93
2019-01-16T00:38:20.719Z,9.10
2019-01-16T00:41:09.006Z,10.97
2019-01-16T00:44:01.474Z,6.67
2019-01-16T00:46:49.680Z,6.40
2019-01-16T00:49:39.276Z,7.63
2019-01-16T00:52:22.884Z,9.57
2019-01-16T00:55:02.497Z,8.33
2019-01-16T00:57:57.909Z,9.17
2019-01-16T01:00:46.438Z,9.87
2019-01-16T01:03:45.066Z,8.70
2019-01-16T01:06:33.707Z,8.50
2019-01-16T01:09:13.357Z,8.60
2019-01-16T01:12:02.937Z,8.60
2019-01-16T01:15:07.873Z,7.93
2019-01-16T01:17:50.697Z,7.47
2019-01-16T01:20:43.485Z,15.83
2019-01-16T01:23:39.025Z,10.33
2019-01-16T01:26:40.701Z,10.07
2019-01-16T01:29:27.109Z,6.83
2019-01-16T01:32:16.685Z,9.70
2019-01-16T01:35:06.910Z,10.20
2019-01-16T01:37:56.590Z,6.50
2019-01-16T01:40:49.209Z,12.57
2019-01-16T01:43:47.901Z,9.47
2019-01-16T01:46:30.893Z,7.60
2019-01-16T01:49:19.414Z,13.07
2019-01-16T01:52:21.426Z,10.20
2019-01-16T01:55:14.425Z,8.30
2019-01-16T01:58:04.041Z,9.13
2019-01-16T02:01:03.425Z,15.93
2019-01-16T02:04:02.105Z,11.50
2019-01-16T02:06:51.701Z,9.07
2019-01-16T02:09:40.036Z,7.13
2019-01-16T02:12:29.418Z,13.80
2019-01-16T02:15:08.859Z,11.60
2019-01-16T02:17:57.181Z,10.00
2019-01-16T02:21:02.977Z,9.40
2019-01-16T02:23:51.485Z,7.50
2019-01-16T02:26:53.420Z,8.87
2019-01-16T02:29:43.078Z,8.97
2019-01-16T02:32:35.540Z,14.00
2019-01-16T02:35:21.874Z,9.37
2019-01-16T02:38:10.366Z,10.77
2019-01-16T02:41:00.029Z,10.57
2019-01-16T02:43:52.632Z,10.80
2019-01-16T02:46:41.183Z,11.00
2019-01-16T02:49:30.867Z,11.93
2019-01-16T02:52:19.441Z,8.93
2019-01-16T02:55:21.137Z,9.27
2019-01-16T02:58:26.205Z,9.30
2019-01-16T03:01:13.674Z,9.90
2019-01-16T03:03:59.341Z,12.70
2019-01-16T03:06:41.918Z,12.83
2019-01-16T03:09:29.198Z,14.97
2019-01-16T03:12:25.035Z,10.80
2019-01-16T03:15:09.677Z,10.73
2019-01-16T03:18:02.316Z,8.73
2019-01-16T03:20:54.149Z,12.80
2019-01-16T03:23:42.609Z,10.37
2019-01-16T03:26:26.642Z,8.70
2019-01-16T03:29:16.295Z,8.73
2019-01-16T03:32:05.976Z,12.70
2019-01-16T03:34:45.413Z,10.30
2019-01-16T03:37:41.123Z,8.53
2019-01-16T03:40:29.810Z,10.67
2019-01-16T03:43:19.464Z,8.83
2019-01-16T03:46:18.197Z,7.10
2019-01-16T03:49:04.033Z,8.43
2019-01-16T03:51:56.686Z,9.33
2019-01-16T03:54:58.448Z,12.67
2019-01-16T03:57:41.902Z,10.80
2019-01-16T04:00:31.443Z,14.53
2019-01-16T04:03:30.170Z,9.27
2019-01-16T04:06:19.842Z,9.90
2019-01-16T04:09:08.405Z,7.33
2019-01-16T04:11:52.638Z,12.87
2019-01-16T04:14:38.297Z,9.23
2019-01-16T04:17:25.239Z,14.20
2019-01-16T04:20:13.725Z,9.20
2019-01-16T04:23:03.332Z,9.07
2019-01-16T04:25:51.621Z,13.27
2019-01-16T04:28:34.810Z,11.27
2019-01-16T04:31:23.203Z,10.40
2019-01-16T04:34:10.166Z,14.10
2019-01-16T04:37:08.468Z,14.93
2019-01-16T04:40:16.151Z,12.73
2019-01-16T04:43:04.739Z,9.53
2019-01-16T04:45:44.947Z,12.87
2019-01-16T04:48:33.147Z,10.87
2019-01-16T04:51:25.678Z,14.00
2019-01-16T04:54:21.146Z,14.10
2019-01-16T04:57:16.636Z,7.80
2019-01-16T05:00:06.281Z,13.17
2019-01-16T05:03:05.972Z,7.57
2019-01-16T05:05:55.628Z,10.47
2019-01-16T05:08:37.136Z,11.03
2019-01-16T05:11:23.000Z,9.33
2019-01-16T05:14:09.833Z,9.97
2019-01-16T05:16:50.988Z,17.63
2019-01-16T05:19:49.753Z,14.60
2019-01-16T05:22:30.062Z,11.37
2019-01-16T05:25:17.366Z,14.97
2019-01-16T05:28:13.075Z,10.50
2019-01-16T05:31:06.132Z,13.67
2019-01-16T05:34:06.005Z,13.10
2019-01-16T05:37:07.533Z,13.10
2019-01-16T05:39:55.857Z,9.50
2019-01-16T05:42:51.328Z,8.10
2019-01-16T05:45:43.778Z,16.07
2019-01-16T05:48:36.161Z,9.30
2019-01-16T05:51:25.818Z,7.50
2019-01-16T05:54:30.642Z,7.73
2019-01-16T05:57:20.230Z,8.37
2019-01-16T06:00:15.554Z,9.53
2019-01-16T06:02:57.354Z,7.33
2019-01-16T06:06:05.282Z,10.00
2019-01-16T06:08:53.838Z,8.70
2019-01-16T06:11:42.249Z,7.03
2019-01-16T06:14:37.257Z,7.63
2019-01-16T06:17:25.701Z,7.27
2019-01-16T06:20:11.598Z,9.60
2019-01-16T06:22:55.202Z,11.90
2019-01-16T06:25:43.654Z,11.73
2019-01-16T06:28:32.274Z,11.77
2019-01-16T06:31:20.805Z,9.30
2019-01-16T06:34:04.722Z,10.50
2019-01-16T06:37:09.703Z,14.10
2019-01-16T06:39:55.768Z,14.17
2019-01-16T06:42:48.265Z,11.27
2019-01-16T06:45:25.890Z,16.40
2019-01-16T06:48:14.452Z,10.40
2019-01-16T06:51:02.543Z,10.90
2019-01-16T06:54:10.230Z,10.60
2019-01-16T06:57:15.033Z,11.80
2019-01-16T07:00:04.594Z,13.10
2019-01-16T07:03:01.117Z,10.60
2019-01-16T07:05:59.718Z,15.20
2019-01-16T07:08:48.161Z,7.83
2019-01-16T07:11:40.680Z,9.63
2019-01-16T07:14:39.404Z,14.77
2019-01-16T07:17:29.200Z,13.57
2019-01-16T07:20:17.717Z,15.00
2019-01-16T07:23:10.365Z,12.30
2019-01-16T07:26:00.249Z,14.00
2019-01-16T07:28:55.906Z,16.50
2019-01-16T07:31:35.054Z,13.30
2019-01-16T07:34:14.613Z,15.33
2019-01-16T07:37:07.320Z,17.53
2019-01-16T07:39:52.750Z,15.87
2019-01-16T07:42:46.861Z,11.93
2019-01-16T07:45:45.452Z,16.67
2019-01-16T07:48:34.382Z,19.73
2019-01-16T07:51:22.879Z,10.40
2019-01-16T07:54:11.414Z,12.57
2019-01-16T07:57:05.182Z,14.63
2019-01-16T07:59:54.842Z,11.80
2019-01-16T08:03:00.779Z,14.33
2019-01-16T08:05:49.733Z,14.40
2019-01-16T08:08:57.456Z,13.80
2019-01-16T08:11:47.053Z,12.83
2019-01-16T08:14:36.630Z,11.80
2019-01-16T08:17:41.716Z,13.13
2019-01-16T08:20:37.183Z,11.53
2019-01-16T08:23:27.459Z,11.53
2019-01-16T08:26:18.844Z,15.77
2019-01-16T08:28:59.429Z,11.23
2019-01-16T08:32:01.246Z,14.80
2019-01-16T08:34:52.065Z,13.37
2019-01-16T08:38:00.126Z,20.13
2019-01-16T08:40:52.537Z,16.60
2019-01-16T08:43:40.962Z,19.53
2019-01-16T08:46:30.549Z,12.10
2019-01-16T08:49:26.110Z,11.47
2019-01-16T08:52:06.202Z,12.90
2019-01-16T08:54:55.021Z,13.73
2019-01-16T08:57:35.858Z,16.93
2019-01-16T09:00:27.161Z,14.33
2019-01-16T09:03:19.761Z,17.30
2019-01-16T09:06:21.501Z,17.73
2019-01-16T09:09:20.265Z,18.67
2019-01-16T09:12:08.709Z,15.73
2019-01-16T09:14:56.848Z,16.10
2019-01-16T09:17:40.057Z,11.33
2019-01-16T09:20:39.999Z,10.53
2019-01-16T09:23:27.706Z,19.00
2019-01-16T09:26:17.346Z,9.93
2019-01-16T09:29:05.856Z,10.27
2019-01-16T09:31:54.354Z,18.13
2019-01-16T09:34:48.685Z,9.57
2019-01-16T09:37:45.725Z,14.10
2019-01-16T09:40:33.780Z,13.80
2019-01-16T09:43:39.490Z,14.90
2019-01-16T09:46:18.030Z,10.73
2019-01-16T09:49:19.757Z,11.87
2019-01-16T09:51:56.265Z,11.10
2019-01-16T09:55:01.082Z,11.77
2019-01-16T09:57:53.377Z,8.30
2019-01-16T10:00:40.265Z,10.40
2019-01-16T10:03:36.134Z,6.77
2019-01-16T10:06:28.639Z,6.70
2019-01-16T10:09:24.159Z,7.30
2019-01-16T10:12:12.589Z,9.73
2019-01-16T10:15:11.070Z,9.73
2019-01-16T10:18:09.937Z,8.80
2019-01-16T10:20:47.461Z,10.80
2019-01-16T10:23:37.128Z,8.97
2019-01-16T10:26:25.794Z,9.87
2019-01-16T10:29:14.642Z,6.13
2019-01-16T10:32:13.304Z,12.60
2019-01-16T10:35:21.172Z,9.73
2019-01-16T10:38:10.753Z,9.70
2019-01-16T10:40:57.261Z,7.73
2019-01-16T10:43:41.232Z,9.60
2019-01-16T10:46:49.400Z,9.50
2019-01-16T10:49:52.201Z,13.80
2019-01-16T10:52:35.368Z,9.20
2019-01-16T10:55:14.099Z,9.00
2019-01-16T10:58:03.767Z,8.17
2019-01-16T11:01:05.561Z,10.37
2019-01-16T11:03:59.594Z,10.00
2019-01-16T11:06:55.226Z,10.13
2019-01-16T11:09:40.785Z,10.83
2019-01-16T11:12:34.273Z,8.20
2019-01-16T11:15:23.249Z,7.37
2019-01-16T11:18:11.628Z,8.50
2019-01-16T11:20:59.969Z,8.90
2019-01-16T11:23:52.701Z,8.03
2019-01-16T11:26:41.275Z,11.67
2019-01-16T11:29:36.750Z,10.07
2019-01-16T11:32:44.536Z,8.10
2019-01-16T11:35:32.700Z,9.00
2019-01-16T11:38:20.981Z,8.80
2019-01-16T11:41:09.273Z,12.23
2019-01-16T11:44:14.285Z,8.50
2019-01-16T11:46:54.049Z,7.20
2019-01-16T11:50:01.833Z,8.67
2019-01-16T11:52:50.141Z,10.20
2019-01-16T11:55:55.147Z,11.23
2019-01-16T11:58:41.637Z,9.30
2019-01-16T12:01:26.089Z,7.80
2019-01-16T12:04:21.550Z,10.43
2019-01-16T12:07:17.245Z,7.40
2019-01-16T12:10:19.118Z,9.80
2019-01-16T12:13:11.800Z,9.60
2019-01-16T12:16:04.352Z,8.10
2019-01-16T12:18:53.937Z,9.20
2019-01-16T12:21:37.399Z,11.57
2019-01-16T12:24:25.972Z,9.30
2019-01-16T12:27:21.360Z,7.90
2019-01-16T12:30:12.440Z,9.90
2019-01-16T12:32:50.180Z,13.30
2019-01-16T12:35:42.836Z,11.47
2019-01-16T12:38:31.211Z,9.57
2019-01-16T12:41:26.665Z,9.00
2019-01-16T12:44:22.789Z,12.40
2019-01-16T12:47:15.235Z,9.27
2019-01-16T12:50:03.585Z,7.77
2019-01-16T12:52:54.248Z,9.90
2019-01-16T12:55:32.021Z,12.00
2019-01-16T12:58:20.346Z,8.70
2019-01-16T13:01:18.829Z,8.93
2019-01-16T13:04:08.506Z,9.10
2019-01-16T13:06:56.741Z,9.90
2019-01-16T13:09:46.334Z,10.57
2019-01-16T13:12:26.374Z,9.70
2019-01-16T13:15:18.807Z,8.40
2019-01-16T13:18:08.161Z,6.60
2019-01-16T13:20:57.819Z,9.93
2019-01-16T13:23:43.209Z,8.83
2019-01-16T13:26:26.221Z,13.67
2019-01-16T13:29:27.984Z,8.77
2019-01-16T13:32:20.410Z,8.37
2019-01-16T13:35:19.070Z,21.93
2019-01-16T13:38:07.475Z,16.93
2019-01-16T13:40:55.886Z,9.33
2019-01-16T13:43:39.095Z,6.43
2019-01-16T13:46:31.762Z,7.23
2019-01-16T13:49:20.019Z,6.23
2019-01-16T13:52:09.669Z,6.60
2019-01-16T13:54:58.161Z,5.90
2019-01-16T13:57:42.417Z,9.00
2019-01-16T14:00:31.673Z,6.87
2019-01-16T14:03:13.397Z,7.13
2019-01-16T14:05:55.749Z,7.27
2019-01-16T14:08:48.349Z,6.27
2019-01-16T14:11:33.972Z,4.20
2019-01-16T14:14:22.374Z,8.23
2019-01-16T14:17:10.645Z,9.43
2019-01-16T14:19:55.830Z,9.30
2019-01-16T14:23:00.543Z,14.33
2019-01-16T14:25:48.705Z,8.57
2019-01-16T14:28:31.321Z,10.33
2019-01-16T14:31:23.956Z,10.60
2019-01-16T14:34:06.701Z,11.00
2019-01-16T14:36:49.454Z,7.20
2019-01-16T14:39:31.924Z,13.70
2019-01-16T14:42:24.523Z,10.33
2019-01-16T14:45:09.076Z,7.80
2019-01-16T14:47:57.574Z,8.27
2019-01-16T14:50:33.539Z,9.90
2019-01-16T14:53:21.925Z,8.83
2019-01-16T14:56:01.525Z,17.03
2019-01-16T14:58:49.846Z,14.27
2019-01-16T15:01:38.164Z,18.30
2019-01-16T15:04:20.621Z,11.60
2019-01-16T15:07:19.197Z,10.27
2019-01-16T15:10:00.588Z,18.33
2019-01-16T15:12:49.428Z,12.27
2019-01-16T15:15:37.818Z,11.23
2019-01-16T15:18:27.394Z,11.80
2019-01-16T15:21:15.900Z,15.50
2019-01-16T15:24:08.951Z,12.97
2019-01-16T15:27:16.741Z,8.90
2019-01-16T15:30:09.143Z,10.83
2019-01-16T15:32:58.521Z,13.27
2019-01-16T15:35:48.446Z,11.20
2019-01-16T15:38:36.821Z,11.63
2019-01-16T15:41:33.054Z,13.17
2019-01-16T15:44:21.432Z,8.83
2019-01-16T15:47:26.096Z,14.77
2019-01-16T15:50:14.502Z,16.10
2019-01-16T15:52:59.309Z,12.50
2019-01-16T15:55:47.569Z,14.07
2019-01-16T15:58:42.942Z,15.93
2019-01-16T16:01:31.306Z,20.80
2019-01-16T16:04:29.969Z,16.20
2019-01-16T16:07:18.392Z,18.17
2019-01-16T16:09:59.328Z,21.93
2019-01-16T16:12:54.066Z,16.73
2019-01-16T16:15:59.104Z,17.63
2019-01-16T16:18:54.646Z,21.73
2019-01-16T16:21:47.443Z,15.60
2019-01-16T16:24:49.165Z,19.63
2019-01-16T16:27:36.584Z,23.20
2019-01-16T16:30:38.389Z,20.17
2019-01-16T16:33:18.621Z,12.70
2019-01-16T16:36:02.591Z,16.07
2019-01-16T16:38:51.299Z,15.10
2019-01-16T16:41:39.708Z,14.80
2019-01-16T16:44:17.268Z,19.70
2019-01-16T16:47:09.981Z,22.07
2019-01-16T16:49:49.957Z,40.10
2019-01-16T16:52:42.779Z,24.03
2019-01-16T16:55:38.369Z,25.97
2019-01-16T16:58:34.045Z,21.83
2019-01-16T17:01:23.948Z,19.43
2019-01-16T17:04:22.936Z,18.57
2019-01-16T17:07:18.609Z,27.07
2019-01-16T17:10:20.165Z,34.60
2019-01-16T17:13:08.443Z,20.93
2019-01-16T17:15:58.101Z,22.40
2019-01-16T17:18:39.680Z,22.13
2019-01-16T17:21:25.488Z,15.50
2019-01-16T17:24:19.149Z,17.93
2019-01-16T17:27:01.252Z,21.00
2019-01-16T17:29:54.948Z,19.13
2019-01-16T17:32:36.836Z,19.37
2019-01-16T17:35:26.073Z,28.50
2019-01-16T17:38:07.081Z,19.60
2019-01-16T17:41:05.701Z,23.83
2019-01-16T17:44:07.821Z,24.60
2019-01-16T17:47:08.449Z,27.60
2019-01-16T17:49:58.049Z,25.97
2019-01-16T17:52:50.581Z,22.83
2019-01-16T17:55:38.821Z,19.97
2019-01-16T17:58:40.795Z,18.60
2019-01-16T18:01:29.347Z,27.60
2019-01-16T18:04:18.665Z,19.70
2019-01-16T18:07:08.175Z,20.50
2019-01-16T18:09:57.846Z,21.33
2019-01-16T18:12:50.526Z,23.60
2019-01-16T18:15:40.214Z,14.40
2019-01-16T18:18:24.337Z,17.23
2019-01-16T18:21:16.665Z,16.80
2019-01-16T18:24:06.349Z,19.83
2019-01-16T18:26:54.971Z,17.23
2019-01-16T18:29:43.479Z,19.00
2019-01-16T18:32:32.041Z,19.13
2019-01-16T18:35:22.177Z,21.17
2019-01-16T18:38:10.676Z,21.90
2019-01-16T18:41:03.130Z,24.53
2019-01-16T18:43:57.789Z,20.63
2019-01-16T18:46:51.533Z,22.90
2019-01-16T18:49:39.934Z,29.30
2019-01-16T18:52:28.302Z,25.90
2019-01-16T18:55:17.925Z,27.40
2019-01-16T18:58:06.313Z,36.70
2019-01-16T19:01:05.009Z,35.73
2019-01-16T19:03:54.589Z,27.63
2019-01-16T19:06:53.257Z,23.93
2019-01-16T19:09:45.949Z,25.37
2019-01-16T19:12:34.291Z,26.07
2019-01-16T19:15:28.796Z,24.50
2019-01-16T19:18:17.071Z,36.57
2019-01-16T19:21:04.274Z,25.70
2019-01-16T19:23:58.148Z,19.63
2019-01-16T19:26:46.534Z,20.90
2019-01-16T19:29:26.318Z,34.90
2019-01-16T19:32:22.179Z,50.63
2019-01-16T19:35:10.485Z,41.13
2019-01-16T19:38:15.285Z,53.27
2019-01-16T19:41:15.458Z,51.53
2019-01-16T19:44:11.357Z,28.70
2019-01-16T19:46:49.692Z,31.27
2019-01-16T19:49:45.300Z,39.47
2019-01-16T19:52:38.087Z,23.30
2019-01-16T19:55:28.681Z,27.57
2019-01-16T19:58:18.284Z,26.70
2019-01-16T20:01:06.577Z,38.70
2019-01-16T20:03:49.886Z,25.73
2019-01-16T20:06:36.106Z,23.83
2019-01-16T20:09:27.858Z,25.43
2019-01-16T20:12:20.468Z,22.90
2019-01-16T20:15:00.206Z,21.97
2019-01-16T20:17:48.698Z,28.07
2019-01-16T20:20:44.712Z,21.90
2019-01-16T20:23:44.562Z,27.00
2019-01-16T20:26:42.265Z,22.53
2019-01-16T20:29:31.846Z,23.47
2019-01-16T20:32:36.834Z,22.90
2019-01-16T20:35:45.035Z,24.27
2019-01-16T20:38:34.561Z,26.17
2019-01-16T20:41:27.146Z,23.40
2019-01-16T20:44:17.064Z,25.40
2019-01-16T20:47:09.456Z,19.83
2019-01-16T20:50:17.544Z,24.63
2019-01-16T20:52:55.848Z,20.63
2019-01-16T20:55:48.201Z,23.03
2019-01-16T20:58:36.804Z,20.73
2019-01-16T21:01:25.496Z,23.53
2019-01-16T21:04:13.845Z,22.47
2019-01-16T21:07:01.458Z,25.73
2019-01-16T21:09:59.553Z,20.00
2019-01-16T21:12:47.844Z,27.60
2019-01-16T21:15:24.239Z,20.73
2019-01-16T21:18:16.085Z,20.40
2019-01-16T21:21:21.093Z,20.57
2019-01-16T21:24:10.688Z,25.60
2019-01-16T21:27:03.308Z,20.43
2019-01-16T21:29:51.362Z,25.20
2019-01-16T21:32:39.914Z,22.43
2019-01-16T21:35:22.424Z,25.13
2019-01-16T21:38:27.526Z,26.83
2019-01-16T21:41:22.993Z,23.13
2019-01-16T21:44:15.367Z,22.13
2019-01-16T21:47:13.281Z,19.33
2019-01-16T21:50:06.061Z,24.13
2019-01-16T21:52:56.140Z,20.40
2019-01-16T21:55:44.690Z,19.77
2019-01-16T21:58:37.681Z,19.00
2019-01-16T22:01:26.166Z,21.33
2019-01-16T22:04:13.210Z,20.90
2019-01-16T22:07:05.900Z,21.50
2019-01-16T22:09:55.766Z,20.17
2019-01-16T22:12:42.653Z,17.90
2019-01-16T22:15:51.678Z,16.97
2019-01-16T22:18:47.242Z,20.53
2019-01-16T22:21:36.892Z,18.50
2019-01-16T22:24:29.420Z,17.83
2019-01-16T22:27:14.778Z,13.87
2019-01-16T22:30:04.443Z,15.77
2019-01-16T22:32:42.141Z,20.30
2019-01-16T22:35:31.733Z,16.73
2019-01-16T22:38:19.933Z,14.60
2019-01-16T22:41:08.229Z,14.50
2019-01-16T22:44:03.726Z,14.33
2019-01-16T22:46:43.566Z,16.00
2019-01-16T22:49:48.288Z,14.63
2019-01-16T22:52:50.185Z,16.20
2019-01-16T22:55:40.265Z,16.87
2019-01-16T22:58:39.209Z,10.80
2019-01-16T23:01:23.398Z,9.00
2019-01-16T23:04:31.389Z,13.17
2019-01-16T23:07:20.961Z,11.93
2019-01-16T23:10:04.104Z,10.37
2019-01-16T23:12:56.435Z,8.33
2019-01-16T23:15:48.918Z,11.67
2019-01-16T23:18:38.492Z,11.00
2019-01-16T23:21:18.312Z,8.83
2019-01-16T23:24:07.872Z,7.57
2019-01-16T23:26:49.787Z,7.20
2019-01-16T23:29:29.253Z,5.07
2019-01-16T23:32:25.145Z,4.93
2019-01-16T23:35:20.810Z,6.83
2019-01-16T23:37:59.251Z,4.33
2019-01-16T23:40:47.770Z,6.77
2019-01-16T23:43:28.362Z,5.90
2019-01-16T23:46:16.914Z,4.80
2019-01-16T23:49:05.181Z,5.90
2019-01-16T23:52:03.574Z,5.80
2019-01-16T23:54:55.945Z,5.27
2019-01-16T23:57:44.445Z,6.50
